Time;durP1;ratioP1;P1;durP2;ratioP2;P2;SDS_P1;SDS_P2;PMS_P1;PMS_P2;Temp;Humidity;BMP_temperature;BMP_pressure;BME280_temperature;BME280_humidity;BME280_pressure;Samples;Min_cycle;Max_cycle;Signal;HPM_P1;HPM_P2
2021/12/29 00:02:19;;;;;;;40.38;17.20;;;;;;;;;;5041480;28;20097;-78
2021/12/29 00:04:45;;;;;;;41.15;17.95;;;;;;;;;;5039751;28;20390;-78
2021/12/29 00:07:11;;;;;;;41.42;17.20;;;;;;;;;;5039672;28;20029;-77
2021/12/29 00:09:40;;;;;;;36.97;16.30;;;;;;;;;;5040795;28;20022;-78
2021/12/29 00:12:07;;;;;;;38.95;17.15;;;;;;;;;;5041037;28;20431;-77
2021/12/29 00:14:33;;;;;;;37.78;16.35;;;;;;;;;;5042777;28;20048;-78
2021/12/29 00:16:59;;;;;;;39.15;17.05;;;;;;;;;;5042624;28;20109;-78
2021/12/29 00:19:26;;;;;;;39.22;16.40;;;;;;;;;;5038566;28;20177;-78
2021/12/29 00:21:52;;;;;;;34.58;15.52;;;;;;;;;;5042495;28;20120;-78
2021/12/29 00:24:18;;;;;;;38.90;16.50;;;;;;;;;;5036083;28;20837;-78
2021/12/29 00:26:46;;;;;;;40.47;17.45;;;;;;;;;;5042267;28;20391;-78
2021/12/29 00:29:14;;;;;;;31.20;15.65;;;;;;;;;;5038980;28;20579;-77
2021/12/29 00:31:40;;;;;;;37.40;16.77;;;;;;;;;;5036218;28;20063;-78
2021/12/29 00:34:06;;;;;;;34.05;15.52;;;;;;;;;;5038301;28;20041;-78
2021/12/29 00:36:32;;;;;;;41.85;17.63;;;;;;;;;;5036582;28;20018;-78
2021/12/29 00:38:58;;;;;;;42.05;18.95;;;;;;;;;;5041261;28;20116;-78
2021/12/29 00:41:24;;;;;;;45.08;19.73;;;;;;;;;;5041044;28;20337;-78
2021/12/29 00:43:50;;;;;;;45.60;20.00;;;;;;;;;;5038341;28;20158;-78
2021/12/29 00:46:17;;;;;;;53.22;21.17;;;;;;;;;;5037223;28;20029;-78
2021/12/29 00:48:45;;;;;;;47.30;19.70;;;;;;;;;;5040786;28;20029;-78
2021/12/29 00:51:12;;;;;;;49.58;20.88;;;;;;;;;;5040023;28;20021;-78
2021/12/29 00:53:38;;;;;;;52.28;20.45;;;;;;;;;;5039164;28;20036;-78
2021/12/29 00:56:05;;;;;;;46.97;20.00;;;;;;;;;;5039891;28;20045;-78
2021/12/29 00:58:31;;;;;;;48.92;20.42;;;;;;;;;;5038351;28;20033;-78
2021/12/29 01:00:58;;;;;;;52.78;19.38;;;;;;;;;;5038840;28;20049;-78
2021/12/29 01:03:24;;;;;;;49.83;21.17;;;;;;;;;;5020146;28;20026;-78
2021/12/29 01:05:50;;;;;;;51.58;20.65;;;;;;;;;;5037513;28;20018;-77
2021/12/29 01:08:16;;;;;;;54.42;21.83;;;;;;;;;;5034685;28;20017;-78
2021/12/29 01:10:42;;;;;;;44.88;20.48;;;;;;;;;;5034321;28;20502;-78
2021/12/29 01:13:11;;;;;;;49.13;20.92;;;;;;;;;;5052528;28;20029;-78
2021/12/29 01:18:25;;;;;;;54.10;20.77;;;;;;;;;;5038547;28;20170;-78
2021/12/29 01:20:51;;;;;;;46.17;19.00;;;;;;;;;;5037026;28;20044;-78
2021/12/29 01:23:17;;;;;;;54.03;21.38;;;;;;;;;;5037057;28;20022;-78
2021/12/29 01:25:43;;;;;;;51.15;20.25;;;;;;;;;;5037890;28;20029;-77
2021/12/29 01:28:09;;;;;;;49.05;20.00;;;;;;;;;;5037069;28;20028;-78
2021/12/29 01:30:35;;;;;;;36.42;16.45;;;;;;;;;;5043136;28;20475;-77
2021/12/29 01:33:05;;;;;;;51.28;19.15;;;;;;;;;;5036806;28;20053;-77
2021/12/29 01:35:32;;;;;;;42.15;17.88;;;;;;;;;;5038465;28;20022;-78
2021/12/29 01:37:58;;;;;;;40.95;17.52;;;;;;;;;;5037717;28;20029;-78
2021/12/29 01:40:26;;;;;;;40.53;17.92;;;;;;;;;;5036608;28;20084;-78
2021/12/29 01:42:52;;;;;;;57.38;20.35;;;;;;;;;;5035993;28;20022;-78
2021/12/29 01:45:18;;;;;;;54.42;20.50;;;;;;;;;;5036996;28;20025;-78
2021/12/29 01:47:44;;;;;;;54.92;22.75;;;;;;;;;;5041656;28;20116;-78
2021/12/29 01:50:11;;;;;;;57.35;21.67;;;;;;;;;;5037650;28;20033;-78
2021/12/29 01:52:39;;;;;;;50.60;21.00;;;;;;;;;;5035807;28;20083;-77
2021/12/29 01:55:07;;;;;;;53.38;21.15;;;;;;;;;;5037274;28;20120;-78
2021/12/29 01:57:33;;;;;;;62.20;21.27;;;;;;;;;;5039200;28;20080;-78
2021/12/29 02:00:00;;;;;;;60.85;21.85;;;;;;;;;;5033987;28;20021;-79
2021/12/29 02:02:26;;;;;;;79.50;24.00;;;;;;;;;;5038409;28;20076;-79
2021/12/29 02:04:52;;;;;;;68.05;23.95;;;;;;;;;;5032970;28;20030;-78
2021/12/29 02:07:18;;;;;;;65.07;24.23;;;;;;;;;;5036814;28;20032;-78
2021/12/29 02:09:44;;;;;;;77.72;26.05;;;;;;;;;;5038059;28;20093;-78
2021/12/29 02:12:10;;;;;;;70.80;23.20;;;;;;;;;;5037525;28;20028;-78
2021/12/29 02:14:36;;;;;;;72.72;24.45;;;;;;;;;;5038724;28;20104;-78
2021/12/29 02:17:03;;;;;;;83.70;25.42;;;;;;;;;;5038699;28;20025;-77
2021/12/29 02:19:29;;;;;;;71.65;24.08;;;;;;;;;;5038040;28;20026;-78
2021/12/29 02:22:04;;;;;;;75.32;25.05;;;;;;;;;;5036868;28;20087;-77
2021/12/29 02:24:42;;;;;;;68.82;21.65;;;;;;;;;;5038485;28;20037;-79
2021/12/29 02:27:10;;;;;;;65.70;22.85;;;;;;;;;;5039536;28;20364;-78
2021/12/29 02:29:37;;;;;;;56.40;22.20;;;;;;;;;;5039423;28;20026;-78
2021/12/29 02:32:04;;;;;;;72.57;23.17;;;;;;;;;;5039421;28;20037;-78
2021/12/29 02:34:30;;;;;;;77.75;25.10;;;;;;;;;;5039971;28;20040;-79
2021/12/29 02:36:58;;;;;;;83.50;26.88;;;;;;;;;;5050137;28;20075;-78
2021/12/29 02:39:25;;;;;;;84.28;25.98;;;;;;;;;;5048250;28;20017;-79
2021/12/29 02:41:53;;;;;;;89.75;27.02;;;;;;;;;;5044330;28;20021;-79
2021/12/29 02:44:25;;;;;;;75.95;25.05;;;;;;;;;;5044707;28;20013;-78
2021/12/29 02:46:51;;;;;;;72.22;24.08;;;;;;;;;;5042788;28;20021;-78
2021/12/29 02:49:17;;;;;;;84.38;26.23;;;;;;;;;;5043321;28;20033;-79
2021/12/29 02:51:43;;;;;;;99.18;27.33;;;;;;;;;;5046090;28;20052;-78
2021/12/29 02:54:10;;;;;;;84.80;25.85;;;;;;;;;;5047241;28;20021;-78
2021/12/29 02:56:37;;;;;;;76.20;25.83;;;;;;;;;;5046405;28;20033;-78
2021/12/29 02:59:03;;;;;;;76.57;24.75;;;;;;;;;;5043382;28;20034;-79
2021/12/29 03:01:29;;;;;;;71.15;23.95;;;;;;;;;;5044689;28;20424;-78
2021/12/29 03:03:56;;;;;;;79.07;27.40;;;;;;;;;;5045559;28;20022;-78
2021/12/29 03:06:23;;;;;;;88.68;25.98;;;;;;;;;;5045124;28;20017;-78
2021/12/29 03:08:49;;;;;;;86.18;26.63;;;;;;;;;;5043530;28;20033;-78
2021/12/29 03:11:15;;;;;;;92.68;28.65;;;;;;;;;;5042631;28;20044;-78
2021/12/29 03:13:41;;;;;;;75.78;25.70;;;;;;;;;;5042090;28;20025;-78
2021/12/29 03:16:08;;;;;;;87.50;28.67;;;;;;;;;;5043999;28;20109;-78
2021/12/29 03:18:34;;;;;;;92.82;30.38;;;;;;;;;;5042179;28;20029;-79
2021/12/29 03:21:00;;;;;;;75.53;25.33;;;;;;;;;;5043966;28;20038;-78
2021/12/29 03:23:26;;;;;;;67.60;23.77;;;;;;;;;;5041819;28;20033;-79
2021/12/29 03:25:52;;;;;;;79.28;27.90;;;;;;;;;;5042661;28;20096;-78
2021/12/29 03:28:19;;;;;;;68.50;25.20;;;;;;;;;;5041923;28;20030;-78
2021/12/29 03:30:48;;;;;;;73.70;25.90;;;;;;;;;;5042305;28;20034;-78
2021/12/29 03:33:15;;;;;;;62.33;24.05;;;;;;;;;;5041599;28;20029;-78
2021/12/29 03:35:42;;;;;;;61.28;23.48;;;;;;;;;;5038126;28;20036;-79
2021/12/29 03:38:10;;;;;;;65.05;23.10;;;;;;;;;;5039827;28;20479;-79
2021/12/29 03:40:37;;;;;;;51.22;20.58;;;;;;;;;;5039728;28;20030;-78
2021/12/29 03:43:04;;;;;;;50.80;19.35;;;;;;;;;;5037791;28;20026;-78
2021/12/29 03:45:30;;;;;;;45.63;18.90;;;;;;;;;;5039264;28;20494;-78
2021/12/29 03:47:56;;;;;;;43.72;18.60;;;;;;;;;;5038640;28;20476;-79
2021/12/29 03:50:22;;;;;;;40.55;18.02;;;;;;;;;;5038178;28;20029;-79
2021/12/29 03:52:49;;;;;;;43.67;18.15;;;;;;;;;;5039356;28;20512;-79
2021/12/29 03:55:15;;;;;;;43.40;19.02;;;;;;;;;;5038957;28;20037;-78
2021/12/29 03:57:41;;;;;;;44.97;18.25;;;;;;;;;;5037933;28;20116;-79
2021/12/29 04:00:09;;;;;;;39.15;16.35;;;;;;;;;;5037622;28;20029;-79
2021/12/29 04:02:37;;;;;;;41.83;16.70;;;;;;;;;;5039217;28;20112;-78
2021/12/29 04:05:04;;;;;;;36.72;16.70;;;;;;;;;;5038402;28;20385;-79
2021/12/29 04:07:31;;;;;;;38.38;16.88;;;;;;;;;;5038848;28;20022;-78
2021/12/29 04:09:57;;;;;;;35.70;15.40;;;;;;;;;;5039434;28;20128;-79
2021/12/29 04:12:23;;;;;;;42.35;15.63;;;;;;;;;;5040089;28;20080;-79
2021/12/29 04:14:49;;;;;;;33.67;15.82;;;;;;;;;;5039736;28;20034;-78
2021/12/29 04:17:18;;;;;;;29.35;14.05;;;;;;;;;;5040081;28;20040;-79
2021/12/29 04:22:30;;;;;;;36.30;14.95;;;;;;;;;;5036576;28;20049;-79
2021/12/29 04:24:56;;;;;;;35.78;15.45;;;;;;;;;;5045703;28;20113;-77
2021/12/29 04:27:24;;;;;;;29.90;15.25;;;;;;;;;;5050937;28;20017;-78
2021/12/29 04:29:50;;;;;;;28.35;11.98;;;;;;;;;;5051512;28;20018;-79
2021/12/29 04:32:16;;;;;;;28.63;13.13;;;;;;;;;;5037081;28;20105;-78
2021/12/29 04:34:42;;;;;;;26.05;13.07;;;;;;;;;;5036749;28;20025;-79
2021/12/29 04:37:08;;;;;;;25.75;13.73;;;;;;;;;;5033366;28;20029;-78
2021/12/29 04:39:34;;;;;;;24.27;12.50;;;;;;;;;;5034689;28;20037;-77
2021/12/29 04:42:00;;;;;;;32.30;13.75;;;;;;;;;;5033638;28;20313;-78
2021/12/29 04:44:26;;;;;;;25.50;13.38;;;;;;;;;;5035871;28;20029;-78
2021/12/29 04:46:54;;;;;;;29.85;13.68;;;;;;;;;;5035545;28;20096;-77
2021/12/29 04:49:28;;;;;;;32.38;17.08;;;;;;;;;;5034365;28;20387;-77
2021/12/29 04:52:02;;;;;;;25.90;13.02;;;;;;;;;;5033865;28;20025;-77
2021/12/29 04:54:28;;;;;;;26.95;12.70;;;;;;;;;;5036039;28;20022;-78
2021/12/29 04:56:55;;;;;;;24.23;12.90;;;;;;;;;;5035118;28;20484;-78
2021/12/29 04:59:21;;;;;;;22.02;11.45;;;;;;;;;;5035908;28;20041;-78
2021/12/29 05:01:47;;;;;;;21.88;10.35;;;;;;;;;;5036505;28;20021;-77
2021/12/29 05:04:20;;;;;;;23.40;10.95;;;;;;;;;;5035531;28;20488;-77
2021/12/29 05:09:31;;;;;;;25.67;12.77;;;;;;;;;;5036269;28;20097;-78
2021/12/29 05:12:00;;;;;;;25.27;12.82;;;;;;;;;;5034072;28;20041;-78
2021/12/29 05:14:26;;;;;;;29.75;14.48;;;;;;;;;;5035381;28;20032;-78
2021/12/29 05:16:52;;;;;;;23.88;14.35;;;;;;;;;;5031190;28;20108;-77
2021/12/29 05:19:18;;;;;;;22.50;12.65;;;;;;;;;;5032981;28;20067;-78
2021/12/29 05:21:44;;;;;;;22.98;10.90;;;;;;;;;;5033168;28;20025;-78
2021/12/29 05:24:10;;;;;;;20.88;11.25;;;;;;;;;;5033773;28;20113;-77
2021/12/29 05:26:36;;;;;;;21.25;11.23;;;;;;;;;;5032203;28;20026;-76
2021/12/29 05:29:03;;;;;;;20.30;12.15;;;;;;;;;;5033477;28;20097;-78
2021/12/29 05:31:29;;;;;;;20.75;10.68;;;;;;;;;;5032860;28;20120;-75
2021/12/29 05:33:55;;;;;;;21.02;12.63;;;;;;;;;;5029824;28;20037;-77
2021/12/29 05:36:21;;;;;;;24.50;12.98;;;;;;;;;;5028017;28;20041;-78
2021/12/29 05:38:47;;;;;;;23.65;11.43;;;;;;;;;;5030686;28;20076;-77
2021/12/29 05:41:13;;;;;;;23.92;12.13;;;;;;;;;;5029169;28;20040;-78
2021/12/29 05:43:40;;;;;;;23.73;12.18;;;;;;;;;;5034658;28;20037;-78
2021/12/29 05:46:06;;;;;;;19.10;10.48;;;;;;;;;;5025233;28;20092;-79
2021/12/29 05:48:33;;;;;;;23.10;13.00;;;;;;;;;;5030788;28;20021;-77
2021/12/29 05:50:59;;;;;;;20.05;10.80;;;;;;;;;;5031986;28;20026;-79
2021/12/29 05:53:26;;;;;;;17.63;9.68;;;;;;;;;;5037988;28;20044;-78
2021/12/29 05:55:52;;;;;;;20.55;11.02;;;;;;;;;;5029347;28;20472;-78
2021/12/29 05:58:18;;;;;;;20.65;11.50;;;;;;;;;;5029126;28;20025;-78
2021/12/29 06:00:44;;;;;;;20.80;11.27;;;;;;;;;;5031298;28;20041;-77
2021/12/29 06:03:10;;;;;;;21.80;11.32;;;;;;;;;;5033692;28;20060;-79
2021/12/29 06:05:37;;;;;;;21.60;11.02;;;;;;;;;;5038746;28;20093;-78
2021/12/29 06:08:03;;;;;;;21.35;11.57;;;;;;;;;;5040935;28;20030;-78
2021/12/29 06:10:30;;;;;;;22.98;13.82;;;;;;;;;;5038240;28;20032;-78
2021/12/29 06:12:56;;;;;;;20.88;11.45;;;;;;;;;;5040715;28;20022;-77
2021/12/29 06:15:22;;;;;;;23.95;11.90;;;;;;;;;;5040733;28;20029;-77
2021/12/29 06:17:48;;;;;;;26.35;12.57;;;;;;;;;;5042558;28;20068;-78
2021/12/29 06:20:15;;;;;;;25.92;13.85;;;;;;;;;;5042901;28;20169;-77
2021/12/29 06:22:41;;;;;;;23.38;11.95;;;;;;;;;;5042324;28;20021;-78
2021/12/29 06:25:09;;;;;;;21.33;11.80;;;;;;;;;;5047803;28;20097;-77
2021/12/29 06:27:35;;;;;;;21.80;11.80;;;;;;;;;;5046369;28;20033;-77
2021/12/29 06:30:01;;;;;;;21.85;12.40;;;;;;;;;;5045986;28;20619;-77
2021/12/29 06:32:27;;;;;;;22.92;11.75;;;;;;;;;;5044808;28;20120;-77
2021/12/29 06:34:55;;;;;;;22.13;12.27;;;;;;;;;;5044897;28;20029;-77
2021/12/29 06:37:21;;;;;;;23.50;11.70;;;;;;;;;;5046069;28;20036;-78
2021/12/29 06:39:47;;;;;;;23.40;13.35;;;;;;;;;;5042365;28;20037;-77
2021/12/29 06:42:15;;;;;;;25.52;13.85;;;;;;;;;;5039840;28;20032;-78
2021/12/29 06:44:41;;;;;;;25.65;13.55;;;;;;;;;;5041394;28;20018;-78
2021/12/29 06:47:08;;;;;;;28.15;14.50;;;;;;;;;;5039854;28;20045;-78
2021/12/29 06:49:34;;;;;;;27.27;14.20;;;;;;;;;;5042343;28;20079;-76
2021/12/29 06:52:01;;;;;;;26.65;13.85;;;;;;;;;;5043564;28;20147;-78
2021/12/29 06:54:27;;;;;;;27.00;13.68;;;;;;;;;;5043011;28;20030;-77
2021/12/29 06:56:53;;;;;;;32.50;14.68;;;;;;;;;;5041745;28;20025;-77
2021/12/29 06:59:20;;;;;;;28.83;14.85;;;;;;;;;;5041535;28;20037;-77
2021/12/29 07:01:46;;;;;;;27.75;13.93;;;;;;;;;;5043916;28;20037;-77
2021/12/29 07:04:12;;;;;;;27.88;15.07;;;;;;;;;;5042697;28;20037;-78
2021/12/29 07:06:38;;;;;;;27.15;13.48;;;;;;;;;;5039596;28;20029;-76
2021/12/29 07:09:05;;;;;;;32.55;16.67;;;;;;;;;;5041518;28;20048;-77
2021/12/29 07:11:38;;;;;;;32.67;14.95;;;;;;;;;;5041031;28;20076;-79
2021/12/29 07:14:05;;;;;;;27.23;14.32;;;;;;;;;;5039537;28;20057;-77
2021/12/29 07:16:32;;;;;;;22.52;12.15;;;;;;;;;;5035483;28;20056;-79
2021/12/29 07:18:58;;;;;;;29.35;13.60;;;;;;;;;;5037563;28;20029;-78
2021/12/29 07:21:24;;;;;;;30.38;14.77;;;;;;;;;;5023047;28;20448;-78
2021/12/29 07:23:53;;;;;;;28.40;14.32;;;;;;;;;;5035314;28;20026;-78
2021/12/29 07:26:19;;;;;;;32.38;17.50;;;;;;;;;;5036217;28;20025;-78
2021/12/29 07:28:45;;;;;;;24.75;14.77;;;;;;;;;;5036775;28;20053;-78
2021/12/29 07:31:11;;;;;;;30.73;15.73;;;;;;;;;;5036217;28;20045;-78
2021/12/29 07:33:37;;;;;;;32.03;15.05;;;;;;;;;;5039803;28;20040;-79
2021/12/29 07:36:04;;;;;;;27.98;15.38;;;;;;;;;;5039382;28;20029;-79
2021/12/29 07:38:30;;;;;;;34.75;16.20;;;;;;;;;;5037689;28;20022;-78
2021/12/29 07:40:56;;;;;;;30.23;15.75;;;;;;;;;;5036772;28;20047;-79
2021/12/29 07:43:22;;;;;;;32.92;15.80;;;;;;;;;;5039659;28;20033;-79
2021/12/29 07:45:50;;;;;;;29.65;15.20;;;;;;;;;;5040449;28;20026;-79
2021/12/29 07:48:18;;;;;;;31.00;14.35;;;;;;;;;;5038354;28;20025;-78
2021/12/29 07:50:44;;;;;;;32.40;15.15;;;;;;;;;;5030487;28;20017;-78
2021/12/29 07:53:10;;;;;;;38.30;17.75;;;;;;;;;;5039858;28;20021;-79
2021/12/29 07:55:36;;;;;;;35.22;15.90;;;;;;;;;;5040511;28;20192;-79
2021/12/29 07:58:02;;;;;;;29.55;14.75;;;;;;;;;;5035176;28;20088;-79
2021/12/29 08:00:28;;;;;;;29.40;15.77;;;;;;;;;;5034344;28;20490;-78
2021/12/29 08:02:54;;;;;;;33.42;15.65;;;;;;;;;;5040442;28;20026;-79
2021/12/29 08:05:20;;;;;;;28.25;15.35;;;;;;;;;;5042328;28;20017;-79
2021/12/29 08:07:47;;;;;;;35.50;17.38;;;;;;;;;;5041715;28;20372;-78
2021/12/29 08:10:13;;;;;;;37.72;16.80;;;;;;;;;;5022327;28;20030;-79
2021/12/29 08:12:39;;;;;;;41.97;18.35;;;;;;;;;;5022478;28;20117;-77
2021/12/29 08:18:09;;;;;;;43.50;18.58;;;;;;;;;;5039651;28;20428;-78
2021/12/29 08:20:36;;;;;;;35.92;16.63;;;;;;;;;;5039411;28;20045;-79
2021/12/29 08:23:03;;;;;;;38.33;17.33;;;;;;;;;;5040328;28;20099;-79
2021/12/29 08:25:29;;;;;;;34.63;16.70;;;;;;;;;;5024933;28;20036;-78
2021/12/29 08:27:55;;;;;;;36.30;16.08;;;;;;;;;;5039595;28;20025;-78
2021/12/29 08:30:21;;;;;;;32.97;16.73;;;;;;;;;;5035015;28;20049;-78
2021/12/29 08:32:48;;;;;;;40.47;17.95;;;;;;;;;;5031040;28;20052;-79
2021/12/29 08:35:14;;;;;;;35.83;16.92;;;;;;;;;;5027721;28;20038;-78
2021/12/29 08:37:41;;;;;;;34.58;16.35;;;;;;;;;;5035601;28;20109;-78
2021/12/29 08:40:08;;;;;;;31.23;17.00;;;;;;;;;;5039775;28;20064;-79
2021/12/29 08:42:34;;;;;;;31.42;15.68;;;;;;;;;;5042421;28;20040;-79
2021/12/29 08:45:01;;;;;;;32.13;15.70;;;;;;;;;;5043457;28;20030;-79
2021/12/29 08:47:27;;;;;;;30.63;16.30;;;;;;;;;;5044420;28;20036;-78
2021/12/29 08:49:53;;;;;;;30.33;15.80;;;;;;;;;;5038209;28;20052;-78
2021/12/29 08:52:19;;;;;;;32.53;16.15;;;;;;;;;;5041958;28;20030;-78
2021/12/29 08:54:45;;;;;;;28.70;15.88;;;;;;;;;;5040236;28;20120;-79
2021/12/29 08:57:11;;;;;;;34.00;17.75;;;;;;;;;;5041882;28;20051;-79
2021/12/29 08:59:37;;;;;;;35.45;16.67;;;;;;;;;;5040622;28;20100;-79
2021/12/29 09:02:03;;;;;;;34.65;18.67;;;;;;;;;;5035521;28;20099;-78
2021/12/29 09:04:29;;;;;;;37.13;18.30;;;;;;;;;;5042584;28;20136;-79
2021/12/29 09:06:55;;;;;;;37.97;17.95;;;;;;;;;;5043362;28;20034;-78
2021/12/29 09:09:21;;;;;;;34.05;16.50;;;;;;;;;;5042044;28;20056;-79
2021/12/29 09:11:47;;;;;;;38.40;17.90;;;;;;;;;;5042381;28;20025;-79
2021/12/29 09:14:14;;;;;;;38.13;17.40;;;;;;;;;;5039551;28;20036;-79
2021/12/29 09:16:41;;;;;;;35.92;17.95;;;;;;;;;;5047503;28;20041;-78
2021/12/29 09:19:11;;;;;;;41.83;19.58;;;;;;;;;;5048980;28;20033;-78
2021/12/29 09:21:38;;;;;;;40.28;19.88;;;;;;;;;;5044571;28;20056;-78
2021/12/29 09:24:05;;;;;;;43.50;20.35;;;;;;;;;;5038037;28;20017;-78
2021/12/29 09:26:31;;;;;;;39.40;19.58;;;;;;;;;;5037973;28;20052;-79
2021/12/29 09:28:57;;;;;;;38.38;19.25;;;;;;;;;;5037451;28;20052;-78
2021/12/29 09:31:24;;;;;;;41.47;20.15;;;;;;;;;;5038002;28;20146;-78
2021/12/29 09:33:50;;;;;;;40.65;19.00;;;;;;;;;;5036039;28;20028;-79
2021/12/29 09:36:18;;;;;;;43.47;20.08;;;;;;;;;;5039967;28;20040;-78
2021/12/29 09:38:44;;;;;;;43.67;21.23;;;;;;;;;;5040952;28;20071;-78
2021/12/29 09:41:12;;;;;;;60.20;23.15;;;;;;;;;;5040482;28;20075;-79
2021/12/29 09:43:38;;;;;;;38.95;20.20;;;;;;;;;;5039889;28;20037;-79
2021/12/29 09:46:06;;;;;;;48.00;21.08;;;;;;;;;;5039081;28;20024;-78
2021/12/29 09:48:32;;;;;;;46.08;21.70;;;;;;;;;;5038685;28;20104;-79
2021/12/29 09:50:58;;;;;;;41.53;20.70;;;;;;;;;;5041741;28;20025;-79
2021/12/29 09:53:24;;;;;;;49.88;24.33;;;;;;;;;;5039901;28;20089;-78
2021/12/29 09:55:50;;;;;;;41.13;21.20;;;;;;;;;;5038418;28;20021;-79
2021/12/29 09:58:17;;;;;;;48.08;22.30;;;;;;;;;;5042467;28;20040;-80
2021/12/29 10:00:45;;;;;;;44.85;21.92;;;;;;;;;;5045472;28;20057;-79
2021/12/29 10:03:17;;;;;;;42.80;22.13;;;;;;;;;;5045051;28;20531;-78
2021/12/29 10:05:44;;;;;;;40.45;20.42;;;;;;;;;;5044254;28;20030;-78
2021/12/29 10:08:12;;;;;;;37.72;20.05;;;;;;;;;;5045294;28;20129;-80
2021/12/29 10:10:40;;;;;;;39.92;19.70;;;;;;;;;;5042731;28;20486;-79
2021/12/29 10:13:07;;;;;;;37.42;19.90;;;;;;;;;;5044929;28;20033;-79
2021/12/29 10:15:40;;;;;;;35.85;18.70;;;;;;;;;;5042838;28;20034;-78
2021/12/29 10:18:12;;;;;;;36.25;18.80;;;;;;;;;;5029880;28;20051;-78
2021/12/29 10:20:49;;;;;;;36.93;18.13;;;;;;;;;;5043158;28;20052;-79
2021/12/29 10:23:17;;;;;;;34.13;17.60;;;;;;;;;;5042489;28;20041;-79
2021/12/29 10:25:43;;;;;;;30.73;16.20;;;;;;;;;;5044710;28;20121;-80
2021/12/29 10:28:18;;;;;;;35.42;17.63;;;;;;;;;;5044361;28;20048;-78
2021/12/29 10:30:44;;;;;;;31.45;17.92;;;;;;;;;;5045989;28;20030;-79
2021/12/29 10:33:11;;;;;;;27.88;16.77;;;;;;;;;;5043276;28;20352;-79
2021/12/29 10:35:37;;;;;;;32.60;16.52;;;;;;;;;;5042255;28;20037;-78
2021/12/29 10:38:11;;;;;;;27.23;16.20;;;;;;;;;;5041244;28;20040;-79
2021/12/29 10:40:37;;;;;;;30.73;16.20;;;;;;;;;;5041948;28;20060;-78
2021/12/29 10:43:04;;;;;;;31.42;16.17;;;;;;;;;;5040641;28;20033;-79
2021/12/29 10:45:38;;;;;;;37.30;16.80;;;;;;;;;;5041506;28;20060;-79
2021/12/29 10:48:16;;;;;;;30.83;15.73;;;;;;;;;;5041772;28;20034;-78
2021/12/29 10:50:53;;;;;;;25.23;14.35;;;;;;;;;;5043341;28;20018;-79
2021/12/29 10:53:23;;;;;;;26.10;14.80;;;;;;;;;;5043605;28;20112;-78
2021/12/29 10:55:49;;;;;;;27.40;15.57;;;;;;;;;;5040441;28;20030;-79
2021/12/29 10:58:17;;;;;;;24.35;15.10;;;;;;;;;;5043186;28;20022;-79
2021/12/29 11:00:49;;;;;;;23.30;13.00;;;;;;;;;;5044779;28;20045;-79
2021/12/29 11:03:17;;;;;;;27.42;15.55;;;;;;;;;;5043059;28;20021;-79
2021/12/29 11:05:48;;;;;;;25.27;14.00;;;;;;;;;;5040933;28;20025;-79
2021/12/29 11:08:14;;;;;;;28.77;16.77;;;;;;;;;;5043562;28;20024;-78
2021/12/29 11:10:41;;;;;;;31.77;17.52;;;;;;;;;;5040647;28;20114;-78
2021/12/29 11:13:08;;;;;;;27.52;16.42;;;;;;;;;;5042230;28;20029;-79
2021/12/29 11:15:37;;;;;;;26.17;15.48;;;;;;;;;;5040691;28;20032;-78
2021/12/29 11:18:06;;;;;;;29.45;16.60;;;;;;;;;;5039513;28;20029;-79
2021/12/29 11:20:33;;;;;;;26.95;15.27;;;;;;;;;;5040855;28;20052;-78
2021/12/29 11:23:07;;;;;;;25.90;16.75;;;;;;;;;;5041303;28;20511;-78
2021/12/29 11:25:34;;;;;;;30.48;17.10;;;;;;;;;;5039234;28;20045;-78
2021/12/29 11:28:01;;;;;;;31.02;16.77;;;;;;;;;;5034876;28;20081;-79
2021/12/29 11:30:27;;;;;;;32.40;18.88;;;;;;;;;;5042209;28;20032;-79
2021/12/29 11:33:02;;;;;;;31.10;16.85;;;;;;;;;;5044739;28;20049;-79
2021/12/29 11:35:28;;;;;;;32.15;17.33;;;;;;;;;;5036125;28;20044;-79
2021/12/29 11:37:55;;;;;;;31.60;18.60;;;;;;;;;;5036665;28;20503;-79
2021/12/29 11:40:24;;;;;;;37.83;20.75;;;;;;;;;;5040304;28;20049;-79
2021/12/29 11:42:51;;;;;;;45.13;24.65;;;;;;;;;;5041266;28;20237;-79
2021/12/29 11:45:18;;;;;;;40.35;21.73;;;;;;;;;;5041982;28;20030;-79
2021/12/29 11:47:45;;;;;;;34.50;20.05;;;;;;;;;;5042609;28;20024;-78
2021/12/29 11:50:12;;;;;;;33.13;19.13;;;;;;;;;;5045502;28;20021;-81
2021/12/29 11:52:53;;;;;;;29.88;17.38;;;;;;;;;;5044834;28;20056;-79
2021/12/29 11:55:20;;;;;;;29.17;17.25;;;;;;;;;;5044902;28;20021;-79
2021/12/29 11:57:47;;;;;;;33.85;18.67;;;;;;;;;;5045588;28;20025;-79
2021/12/29 12:00:13;;;;;;;30.05;17.73;;;;;;;;;;5043174;28;20056;-79
2021/12/29 12:02:39;;;;;;;33.25;17.63;;;;;;;;;;5044944;28;20089;-79
2021/12/29 12:05:10;;;;;;;27.38;16.00;;;;;;;;;;5043292;28;20025;-78
2021/12/29 12:07:36;;;;;;;29.25;17.00;;;;;;;;;;5043625;28;20026;-78
2021/12/29 12:10:08;;;;;;;30.65;17.00;;;;;;;;;;5044325;28;20072;-78
2021/12/29 12:12:35;;;;;;;35.67;19.05;;;;;;;;;;5044471;28;20017;-79
2021/12/29 12:15:02;;;;;;;27.40;16.83;;;;;;;;;;5042053;28;20022;-79
2021/12/29 12:17:50;;;;;;;29.48;18.25;;;;;;;;;;5040627;28;20067;-78
2021/12/29 12:20:16;;;;;;;29.35;17.40;;;;;;;;;;5057103;28;20053;-80
2021/12/29 12:22:52;;;;;;;31.35;17.48;;;;;;;;;;5039413;28;20541;-79
2021/12/29 12:25:26;;;;;;;29.25;17.10;;;;;;;;;;5040208;28;20030;-79
2021/12/29 12:27:58;;;;;;;33.72;19.95;;;;;;;;;;5043287;28;20030;-80
2021/12/29 12:30:26;;;;;;;30.23;18.27;;;;;;;;;;5043397;28;20077;-80
2021/12/29 12:33:08;;;;;;;33.60;18.98;;;;;;;;;;5042219;28;20065;-79
2021/12/29 12:35:34;;;;;;;31.90;18.70;;;;;;;;;;5032120;28;20081;-80
2021/12/29 12:38:11;;;;;;;33.58;20.13;;;;;;;;;;5040576;28;20115;-80
2021/12/29 12:40:37;;;;;;;33.10;18.45;;;;;;;;;;5041318;28;20036;-80
2021/12/29 12:43:10;;;;;;;29.38;17.98;;;;;;;;;;5043497;28;20173;-80
2021/12/29 12:45:36;;;;;;;;;;;;;;;;;;5039461;28;20025;-80
2021/12/29 12:48:11;;;;;;;29.27;18.52;;;;;;;;;;5042006;28;19955;-80
2021/12/29 12:50:38;;;;;;;33.03;18.75;;;;;;;;;;5042658;28;20033;-80
2021/12/29 12:53:05;;;;;;;31.92;18.55;;;;;;;;;;5042942;28;20551;-80
2021/12/29 12:55:32;;;;;;;31.00;17.65;;;;;;;;;;5041656;28;20033;-80
2021/12/29 12:58:09;;;;;;;31.60;18.08;;;;;;;;;;5042220;28;20495;-80
2021/12/29 13:00:35;;;;;;;29.27;18.38;;;;;;;;;;5040984;28;20056;-80
2021/12/29 13:03:04;;;;;;;30.58;19.20;;;;;;;;;;5041358;28;20113;-80
2021/12/29 13:05:40;;;;;;;31.45;19.73;;;;;;;;;;5039089;28;20032;-78
2021/12/29 13:08:13;;;;;;;33.15;20.23;;;;;;;;;;5041050;28;20399;-80
2021/12/29 13:10:50;;;;;;;33.03;19.95;;;;;;;;;;5041843;28;20032;-80
2021/12/29 13:13:20;;;;;;;32.20;20.83;;;;;;;;;;5039774;28;20153;-80
2021/12/29 13:15:47;;;;;;;37.30;21.92;;;;;;;;;;5040360;28;20181;-80
2021/12/29 13:18:15;;;;;;;33.28;20.52;;;;;;;;;;5040824;28;20030;-80
2021/12/29 13:20:42;;;;;;;124.13;73.05;;;;;;;;;;5037507;28;20045;-80
2021/12/29 13:23:09;;;;;;;38.47;23.58;;;;;;;;;;5038487;28;20025;-79
2021/12/29 13:25:38;;;;;;;35.38;21.50;;;;;;;;;;5034927;28;20060;-79
2021/12/29 13:28:12;;;;;;;36.88;20.33;;;;;;;;;;5037993;28;20052;-78
2021/12/29 13:30:41;;;;;;;36.97;21.13;;;;;;;;;;5030330;28;20438;-79
2021/12/29 13:33:07;;;;;;;33.97;20.20;;;;;;;;;;5040171;28;20036;-79
2021/12/29 13:35:35;;;;;;;38.13;22.23;;;;;;;;;;5038771;28;20056;-80
2021/12/29 13:38:04;;;;;;;34.88;20.63;;;;;;;;;;5037387;28;20045;-79
2021/12/29 13:40:39;;;;;;;37.42;20.75;;;;;;;;;;5043486;28;20406;-80
2021/12/29 13:43:14;;;;;;;34.90;22.50;;;;;;;;;;5054507;28;20057;-79
2021/12/29 13:45:40;;;;;;;30.73;20.17;;;;;;;;;;5037983;28;20014;-79
2021/12/29 13:48:06;;;;;;;38.55;21.85;;;;;;;;;;5037997;28;20034;-79
2021/12/29 13:50:33;;;;;;;33.00;21.02;;;;;;;;;;5029517;28;20026;-80
2021/12/29 13:52:59;;;;;;;33.20;20.83;;;;;;;;;;5023198;28;20086;-80
2021/12/29 13:55:27;;;;;;;38.25;23.17;;;;;;;;;;5041829;28;20040;-79
2021/12/29 13:57:54;;;;;;;38.78;26.02;;;;;;;;;;5042021;28;20021;-79
2021/12/29 14:00:20;;;;;;;41.55;26.75;;;;;;;;;;5040199;28;20040;-80
2021/12/29 14:02:46;;;;;;;33.90;21.00;;;;;;;;;;5030961;28;20022;-78
2021/12/29 14:05:15;;;;;;;36.35;23.13;;;;;;;;;;5046039;28;20029;-78
2021/12/29 14:07:41;;;;;;;40.47;25.30;;;;;;;;;;5044170;28;21032;-79
2021/12/29 14:10:07;;;;;;;38.92;24.02;;;;;;;;;;5044658;28;20041;-80
2021/12/29 14:12:35;;;;;;;38.08;22.95;;;;;;;;;;5041221;28;20014;-79
2021/12/29 14:15:06;;;;;;;38.08;23.10;;;;;;;;;;5040908;28;20029;-79
2021/12/29 14:17:37;;;;;;;37.83;23.08;;;;;;;;;;5041746;28;20048;-79
2021/12/29 14:20:05;;;;;;;44.85;25.98;;;;;;;;;;5041961;28;20089;-79
2021/12/29 14:22:31;;;;;;;58.33;30.85;;;;;;;;;;5039944;28;20028;-79
2021/12/29 14:25:05;;;;;;;69.82;34.55;;;;;;;;;;5041606;28;20458;-79
2021/12/29 14:27:34;;;;;;;75.80;37.78;;;;;;;;;;5041533;28;20077;-78
2021/12/29 14:30:11;;;;;;;71.78;35.47;;;;;;;;;;5041270;28;20035;-79
2021/12/29 14:32:37;;;;;;;74.78;36.17;;;;;;;;;;5040354;28;20107;-79